Time;durP1;ratioP1;P1;durP2;ratioP2;P2;SDS_P1;SDS_P2;PMS_P1;PMS_P2;Temp;Humidity;BMP_temperature;BMP_pressure;BME280_temperature;BME280_humidity;BME280_pressure;Samples;Min_cycle;Max_cycle;Signal;HPM_P1;HPM_P2
2023/09/19 00:00:40;;;;;;;5.72;1.73;;;18.40;74.00;;;;;;5038335;28;20041;-79
2023/09/19 00:03:06;;;;;;;4.28;1.50;;;18.40;73.90;;;;;;5027265;28;20033;-78
2023/09/19 00:05:35;;;;;;;4.05;1.45;;;18.40;73.80;;;;;;5043248;28;20026;-78
2023/09/19 00:08:04;;;;;;;7.57;1.80;;;18.40;73.80;;;;;;5057855;28;20040;-78
2023/09/19 00:10:36;;;;;;;4.35;1.58;;;18.30;73.80;;;;;;5042488;28;20032;-78
2023/09/19 00:13:06;;;;;;;5.03;1.88;;;18.30;73.80;;;;;;5064307;28;20029;-78
2023/09/19 00:15:59;;;;;;;5.50;1.77;;;18.30;73.90;;;;;;5034739;28;20029;-78
2023/09/19 00:18:29;;;;;;;5.28;1.73;;;18.30;74.00;;;;;;5027326;28;20486;-78
2023/09/19 00:20:58;;;;;;;5.47;1.50;;;18.30;74.30;;;;;;5033733;28;20439;-78
2023/09/19 00:23:24;;;;;;;8.20;2.00;;;18.20;74.30;;;;;;5045673;28;20033;-78
2023/09/19 00:25:51;;;;;;;5.70;1.88;;;18.20;74.40;;;;;;5024936;28;20021;-79
2023/09/19 00:28:18;;;;;;;7.60;2.05;;;18.20;74.60;;;;;;5039369;28;20029;-78
2023/09/19 00:30:44;;;;;;;10.20;2.05;;;18.30;74.70;;;;;;5035343;28;20432;-78
2023/09/19 00:33:11;;;;;;;8.20;2.17;;;18.30;75.50;;;;;;5038004;28;20104;-79
2023/09/19 00:35:37;;;;;;;6.15;1.85;;;18.30;75.10;;;;;;5043549;28;20021;-79
2023/09/19 00:38:03;;;;;;;8.18;2.00;;;18.30;75.20;;;;;;5041494;28;20029;-78
2023/09/19 00:40:30;;;;;;;7.20;2.42;;;18.30;75.30;;;;;;5040531;28;20413;-78
2023/09/19 00:43:00;;;;;;;8.10;2.15;;;18.30;76.00;;;;;;5040982;28;20086;-78
2023/09/19 00:45:28;;;;;;;8.07;2.22;;;18.40;75.30;;;;;;5038017;28;20029;-77
2023/09/19 00:47:54;;;;;;;8.18;2.20;;;18.40;75.30;;;;;;5030245;28;20029;-77
2023/09/19 00:50:24;;;;;;;8.82;1.85;;;18.40;75.30;;;;;;5049957;28;20090;-77
2023/09/19 00:52:57;;;;;;;8.43;1.88;;;18.40;75.40;;;;;;5034405;28;20358;-77
2023/09/19 00:55:26;;;;;;;6.40;2.00;;;18.40;75.30;;;;;;5047494;28;20451;-76
2023/09/19 00:57:52;;;;;;;7.75;1.75;;;18.40;75.30;;;;;;5041709;28;20113;-77
2023/09/19 01:00:20;;;;;;;9.05;1.90;;;18.40;75.30;;;;;;5032632;28;20033;-77
2023/09/19 01:02:47;;;;;;;8.05;2.22;;;18.40;75.30;;;;;;5032507;28;20048;-77
2023/09/19 01:05:13;;;;;;;7.63;1.95;;;18.40;75.30;;;;;;5020435;28;20025;-77
2023/09/19 01:07:41;;;;;;;7.63;1.58;;;18.40;75.30;;;;;;5031323;28;20083;-77
2023/09/19 01:10:14;;;;;;;7.07;1.65;;;18.40;75.40;;;;;;5022766;28;20033;-77
2023/09/19 01:12:47;;;;;;;6.97;2.30;;;18.40;75.50;;;;;;5035354;28;20459;-77
2023/09/19 01:15:49;;;;;;;7.40;1.85;;;18.40;75.50;;;;;;5036609;28;20410;-78
2023/09/19 01:18:52;;;;;;;7.78;2.00;;;18.40;75.50;;;;;;5031553;28;20017;-77
2023/09/19 01:21:43;;;;;;;9.07;2.08;;;18.30;75.50;;;;;;5034350;28;20466;-77
2023/09/19 01:24:27;;;;;;;10.25;2.50;;;18.30;75.60;;;;;;5032857;28;20119;-77
2023/09/19 01:27:31;;;;;;;8.43;2.22;;;18.30;75.70;;;;;;5031957;28;20485;-77
2023/09/19 01:30:17;;;;;;;9.38;2.10;;;18.30;75.70;;;;;;5046600;28;20037;-77
2023/09/19 01:32:44;;;;;;;6.80;1.92;;;18.30;75.70;;;;;;5044618;28;20037;-77
2023/09/19 01:35:12;;;;;;;8.23;1.80;;;18.20;75.80;;;;;;5032994;28;20025;-77
2023/09/19 01:37:38;;;;;;;8.05;2.03;;;18.30;75.90;;;;;;5036503;28;20029;-76
2023/09/19 01:40:20;;;;;;;7.50;2.10;;;18.30;75.90;;;;;;5049897;28;20028;-77
2023/09/19 01:43:00;;;;;;;9.90;2.28;;;18.30;75.70;;;;;;5014285;28;20105;-77
2023/09/19 01:45:57;;;;;;;9.63;2.40;;;18.30;75.60;;;;;;5033199;28;20041;-77
2023/09/19 01:49:03;;;;;;;6.25;1.73;;;18.30;75.50;;;;;;5037678;28;20417;-79
2023/09/19 01:51:40;;;;;;;8.40;2.28;;;18.20;75.40;;;;;;5055382;28;20037;-79
2023/09/19 01:54:12;;;;;;;9.07;2.67;;;18.20;75.50;;;;;;5033561;28;20017;-79
2023/09/19 01:57:16;;;;;;;9.55;2.63;;;18.20;75.30;;;;;;5048021;28;20366;-79
2023/09/19 01:59:48;;;;;;;9.05;2.25;;;18.20;75.20;;;;;;5034754;28;20038;-79
2023/09/19 02:02:17;;;;;;;9.48;2.22;;;18.20;75.20;;;;;;5048339;28;20095;-79
2023/09/19 02:04:43;;;;;;;10.73;2.50;;;18.20;75.10;;;;;;5049834;28;20033;-76
2023/09/19 02:07:09;;;;;;;5.47;1.95;;;18.20;74.90;;;;;;5039012;28;20047;-77
2023/09/19 02:09:38;;;;;;;16.13;2.60;;;18.20;74.80;;;;;;5042623;28;20104;-77
2023/09/19 02:12:05;;;;;;;8.40;2.13;;;18.20;74.60;;;;;;5036211;28;20028;-77
2023/09/19 02:14:31;;;;;;;10.55;2.42;;;18.20;74.50;;;;;;5044428;28;20059;-77
2023/09/19 02:16:56;;;;;;;10.20;2.40;;;18.20;74.30;;;;;;5054287;28;20060;-77
2023/09/19 02:19:22;;;;;;;9.23;2.13;;;18.20;74.30;;;;;;5022555;28;20117;-76
2023/09/19 02:21:49;;;;;;;9.13;2.47;;;18.10;74.10;;;;;;5045479;28;20081;-77
2023/09/19 02:24:15;;;;;;;8.80;2.60;;;18.10;74.00;;;;;;5025591;28;20026;-77
2023/09/19 02:26:41;;;;;;;6.18;1.98;;;18.10;73.90;;;;;;5044914;28;20045;-77
2023/09/19 02:29:12;;;;;;;7.65;2.28;;;18.10;73.80;;;;;;5037024;28;20029;-76
2023/09/19 02:31:39;;;;;;;8.25;2.30;;;18.00;73.70;;;;;;5036197;28;20044;-77
2023/09/19 02:34:06;;;;;;;10.98;2.63;;;18.00;73.50;;;;;;5035182;28;20120;-77
2023/09/19 02:36:32;;;;;;;10.15;2.05;;;18.00;73.30;;;;;;5055698;28;20044;-77
2023/09/19 02:38:58;;;;;;;10.65;2.80;;;18.00;73.20;;;;;;5042703;28;20025;-77
2023/09/19 02:41:23;;;;;;;8.23;2.10;;;17.90;73.20;;;;;;5047684;28;20051;-77
2023/09/19 02:43:49;;;;;;;9.07;2.47;;;17.90;73.10;;;;;;5037674;28;20120;-77
2023/09/19 02:46:17;;;;;;;9.27;2.25;;;17.90;72.90;;;;;;5050468;28;20021;-77
2023/09/19 02:48:42;;;;;;;9.93;2.50;;;17.90;72.90;;;;;;5046521;28;20025;-79
2023/09/19 02:51:08;;;;;;;10.60;2.88;;;17.90;72.80;;;;;;5037190;28;20359;-79
2023/09/19 02:53:35;;;;;;;8.00;1.92;;;17.90;72.70;;;;;;5039877;28;20033;-79
2023/09/19 02:56:01;;;;;;;9.38;2.63;;;17.80;72.60;;;;;;5050033;28;20022;-79
2023/09/19 02:58:27;;;;;;;9.57;2.05;;;17.80;72.60;;;;;;5044083;28;20117;-77
2023/09/19 03:00:55;;;;;;;11.82;2.95;;;17.80;72.40;;;;;;5035327;28;20060;-77
2023/09/19 03:03:23;;;;;;;9.18;2.30;;;17.80;72.40;;;;;;5050583;28;20349;-77
2023/09/19 03:05:51;;;;;;;7.90;2.17;;;17.80;72.30;;;;;;5035961;28;20136;-77
2023/09/19 03:08:18;;;;;;;8.52;2.20;;;17.80;72.30;;;;;;5035912;28;20036;-77
2023/09/19 03:10:47;;;;;;;7.78;2.33;;;17.70;72.00;;;;;;5046830;28;20033;-77
2023/09/19 03:13:14;;;;;;;9.57;2.20;;;17.70;72.00;;;;;;5036474;28;20087;-76
2023/09/19 03:15:46;;;;;;;8.63;1.98;;;17.70;71.90;;;;;;5029616;28;20033;-76
2023/09/19 03:18:12;;;;;;;;;;;17.70;71.80;;;;;;5052591;28;20025;-77
2023/09/19 03:20:40;;;;;;;7.38;2.35;;;17.70;72.00;;;;;;5032003;28;19909;-76
2023/09/19 03:23:06;;;;;;;7.38;2.10;;;17.60;72.10;;;;;;5048056;28;20057;-76
2023/09/19 03:25:34;;;;;;;8.88;2.58;;;17.60;72.00;;;;;;5034940;28;20033;-77
2023/09/19 03:28:01;;;;;;;9.13;2.35;;;17.50;71.90;;;;;;5029290;28;20030;-77
2023/09/19 03:30:27;;;;;;;7.95;2.40;;;17.50;71.80;;;;;;5034237;28;20416;-77
2023/09/19 03:32:52;;;;;;;10.68;2.35;;;17.50;71.60;;;;;;5040004;28;20276;-77
2023/09/19 03:35:19;;;;;;;7.38;2.03;;;17.50;71.50;;;;;;5046108;28;20048;-77
2023/09/19 03:37:45;;;;;;;9.18;2.70;;;17.50;71.30;;;;;;5065105;28;20082;-77
2023/09/19 03:40:12;;;;;;;10.00;2.47;;;17.50;71.20;;;;;;5032145;28;20082;-77
2023/09/19 03:42:42;;;;;;;9.77;2.38;;;17.50;71.10;;;;;;5054131;28;20033;-76
2023/09/19 03:45:12;;;;;;;7.60;2.10;;;17.50;71.00;;;;;;5037497;28;20045;-76
2023/09/19 03:47:39;;;;;;;9.38;2.42;;;17.40;70.80;;;;;;5052251;28;20034;-77
2023/09/19 03:50:10;;;;;;;7.40;2.45;;;17.40;70.70;;;;;;5051518;28;20120;-77
2023/09/19 03:52:38;;;;;;;12.60;2.42;;;17.40;70.50;;;;;;5035714;28;20045;-77
2023/09/19 03:55:04;;;;;;;9.93;2.10;;;17.40;70.30;;;;;;5039650;28;20021;-76
2023/09/19 03:57:30;;;;;;;5.85;1.70;;;17.40;70.20;;;;;;5057874;28;20017;-79
2023/09/19 03:59:56;;;;;;;8.82;2.80;;;17.40;70.10;;;;;;5045248;28;20033;-79
2023/09/19 04:02:22;;;;;;;9.25;2.10;;;17.40;70.00;;;;;;5038815;28;20124;-77
2023/09/19 04:04:50;;;;;;;8.90;2.55;;;17.40;69.90;;;;;;5032751;28;20028;-78
2023/09/19 04:07:16;;;;;;;7.85;2.00;;;17.40;69.70;;;;;;5036050;28;20036;-77
2023/09/19 04:09:42;;;;;;;9.13;2.20;;;17.40;69.60;;;;;;5043562;28;20395;-77
2023/09/19 04:12:11;;;;;;;9.60;2.42;;;17.30;69.50;;;;;;5053847;28;20054;-77
2023/09/19 04:14:37;;;;;;;8.70;2.13;;;17.30;69.50;;;;;;5037884;28;20095;-78
2023/09/19 04:17:03;;;;;;;12.15;2.60;;;17.30;69.40;;;;;;5016281;28;20137;-77
2023/09/19 04:19:29;;;;;;;11.90;2.45;;;17.30;69.50;;;;;;5035842;28;20021;-78
2023/09/19 04:21:55;;;;;;;8.27;1.80;;;17.30;69.30;;;;;;5033990;28;20102;-77
2023/09/19 04:24:20;;;;;;;11.13;2.03;;;17.30;69.40;;;;;;5034513;28;20138;-77
2023/09/19 04:26:46;;;;;;;9.18;2.33;;;17.30;69.20;;;;;;5033298;28;20458;-75
2023/09/19 04:29:14;;;;;;;5.75;1.67;;;17.30;69.00;;;;;;5047806;28;20103;-74
2023/09/19 04:31:40;;;;;;;9.48;1.85;;;17.30;68.90;;;;;;5030396;28;20030;-74
2023/09/19 04:34:10;;;;;;;9.25;1.95;;;17.30;68.70;;;;;;5025110;28;20112;-76
2023/09/19 04:36:36;;;;;;;7.85;2.30;;;17.30;68.50;;;;;;5034895;28;20373;-74
2023/09/19 04:39:07;;;;;;;7.55;1.98;;;17.30;68.60;;;;;;5044114;28;20082;-74
2023/09/19 04:41:33;;;;;;;7.63;2.05;;;17.20;68.60;;;;;;5038261;28;20417;-74
2023/09/19 04:44:00;;;;;;;10.90;2.50;;;17.20;68.50;;;;;;5041965;28;20037;-74
2023/09/19 04:46:25;;;;;;;7.05;1.67;;;17.20;68.50;;;;;;5041925;28;20040;-74
2023/09/19 04:48:51;;;;;;;8.07;2.03;;;17.20;68.40;;;;;;5036023;28;20108;-73
2023/09/19 04:51:18;;;;;;;9.27;2.58;;;17.20;68.40;;;;;;5034563;28;20030;-74
2023/09/19 04:53:44;;;;;;;11.48;2.85;;;17.20;68.40;;;;;;5030583;28;20354;-73
2023/09/19 04:56:10;;;;;;;10.80;2.13;;;17.20;68.40;;;;;;5044043;28;20033;-78
2023/09/19 04:58:35;;;;;;;7.65;2.40;;;17.20;68.40;;;;;;5038480;28;20040;-78
2023/09/19 05:01:02;;;;;;;8.43;2.38;;;17.20;68.30;;;;;;5050961;28;20021;-78
2023/09/19 05:03:28;;;;;;;7.97;1.80;;;17.20;68.20;;;;;;5035033;28;20059;-78
2023/09/19 05:05:54;;;;;;;9.75;2.33;;;17.10;68.20;;;;;;5038139;28;20048;-78
2023/09/19 05:08:22;;;;;;;8.77;2.53;;;17.10;68.90;;;;;;5033328;28;20017;-78
2023/09/19 05:10:48;;;;;;;8.10;2.10;;;17.20;68.40;;;;;;5033573;28;20080;-78
2023/09/19 05:13:15;;;;;;;7.78;1.92;;;17.10;68.30;;;;;;5033695;28;20409;-78
2023/09/19 05:15:40;;;;;;;10.45;2.60;;;17.10;68.40;;;;;;5033388;28;20029;-78
2023/09/19 05:18:06;;;;;;;9.75;2.22;;;17.10;68.30;;;;;;5034172;28;20022;-78
2023/09/19 05:20:34;;;;;;;6.68;2.10;;;17.10;68.30;;;;;;5017432;28;20103;-77
2023/09/19 05:23:05;;;;;;;6.03;1.83;;;17.10;68.30;;;;;;5019600;28;20039;-78
2023/09/19 05:25:32;;;;;;;8.30;2.15;;;17.10;68.30;;;;;;5035830;28;20347;-77
2023/09/19 05:27:58;;;;;;;7.63;1.92;;;17.10;68.40;;;;;;5034111;28;20041;-78
2023/09/19 05:30:28;;;;;;;11.40;2.70;;;17.10;68.30;;;;;;5037317;28;20060;-78
2023/09/19 05:32:55;;;;;;;10.10;2.50;;;17.10;68.30;;;;;;5030370;28;20029;-78
2023/09/19 05:35:22;;;;;;;10.23;2.15;;;17.10;68.40;;;;;;5047625;28;20013;-78
2023/09/19 05:37:50;;;;;;;8.32;2.40;;;17.10;68.40;;;;;;5034626;28;20041;-77
2023/09/19 05:40:17;;;;;;;7.55;2.35;;;17.10;68.40;;;;;;5032700;28;20108;-78
2023/09/19 05:42:43;;;;;;;8.93;2.25;;;17.10;68.40;;;;;;5049485;28;20108;-77
2023/09/19 05:45:13;;;;;;;6.35;1.98;;;17.10;68.50;;;;;;5042793;28;20032;-76
2023/09/19 05:47:41;;;;;;;8.25;1.98;;;17.20;68.60;;;;;;5037500;28;20371;-77
2023/09/19 05:50:08;;;;;;;6.18;1.77;;;17.20;68.60;;;;;;5037786;28;20053;-76
2023/09/19 05:52:38;;;;;;;8.18;2.30;;;17.20;68.60;;;;;;5030207;28;20116;-74
2023/09/19 05:55:06;;;;;;;9.45;2.13;;;17.30;68.70;;;;;;5031317;28;20029;-75
2023/09/19 05:57:32;;;;;;;8.02;2.10;;;17.30;68.50;;;;;;5044130;28;20029;-74
2023/09/19 05:59:58;;;;;;;7.15;2.10;;;17.40;68.50;;;;;;5030333;28;20032;-75
2023/09/19 06:02:28;;;;;;;6.75;1.98;;;17.40;68.50;;;;;;5029481;28;20037;-77
2023/09/19 06:04:55;;;;;;;9.18;2.08;;;17.40;68.50;;;;;;5031793;28;20047;-75
2023/09/19 06:07:25;;;;;;;7.88;2.08;;;17.40;68.50;;;;;;5029278;28;20029;-77
2023/09/19 06:09:53;;;;;;;8.10;2.22;;;17.40;68.60;;;;;;5031550;28;20036;-77
2023/09/19 06:12:19;;;;;;;6.80;1.90;;;17.40;68.70;;;;;;5030287;28;20437;-76
2023/09/19 06:14:45;;;;;;;7.82;2.17;;;17.40;68.60;;;;;;5030423;28;20025;-77
2023/09/19 06:17:10;;;;;;;11.10;2.05;;;17.50;68.80;;;;;;5030551;28;20082;-75
2023/09/19 06:19:36;;;;;;;7.88;2.13;;;17.50;68.80;;;;;;5031359;28;20029;-76
2023/09/19 06:22:02;;;;;;;10.35;2.10;;;17.50;68.80;;;;;;5032979;28;20030;-77
2023/09/19 06:24:29;;;;;;;10.93;2.35;;;17.50;69.00;;;;;;5030473;28;20397;-77
2023/09/19 06:26:55;;;;;;;8.25;2.17;;;17.50;68.90;;;;;;5032540;28;20029;-75
2023/09/19 06:29:23;;;;;;;10.23;2.17;;;17.50;69.00;;;;;;5031098;28;20022;-76
2023/09/19 06:31:49;;;;;;;7.05;1.95;;;17.50;69.00;;;;;;5029151;28;20067;-75
2023/09/19 06:34:18;;;;;;;13.07;2.35;;;17.60;69.10;;;;;;5029582;28;20032;-75
2023/09/19 06:36:44;;;;;;;8.27;2.20;;;17.60;69.20;;;;;;5023506;28;20336;-76
2023/09/19 06:39:10;;;;;;;8.63;2.50;;;17.60;69.20;;;;;;5045271;28;20612;-78
2023/09/19 06:41:39;;;;;;;7.68;2.08;;;17.70;69.20;;;;;;5043922;28;20362;-77
2023/09/19 06:44:10;;;;;;;9.25;2.33;;;17.70;69.20;;;;;;5045620;28;20021;-77
2023/09/19 06:46:40;;;;;;;8.93;2.25;;;17.60;69.20;;;;;;5028554;28;20037;-76
2023/09/19 06:49:06;;;;;;;8.05;1.65;;;17.70;69.30;;;;;;5044220;28;20035;-76
2023/09/19 06:51:34;;;;;;;12.85;2.45;;;17.70;69.40;;;;;;5029258;28;20021;-76
2023/09/19 06:54:01;;;;;;;7.55;2.25;;;17.70;69.50;;;;;;5030295;28;20034;-75
2023/09/19 06:56:27;;;;;;;7.90;1.90;;;17.80;69.50;;;;;;5012312;28;20021;-74
2023/09/19 06:58:53;;;;;;;6.38;1.90;;;17.80;69.40;;;;;;5029952;28;20407;-78
2023/09/19 07:01:19;;;;;;;11.45;2.53;;;17.90;69.50;;;;;;5029813;28;20030;-75
2023/09/19 07:03:45;;;;;;;6.45;2.08;;;17.90;69.40;;;;;;5030402;28;20048;-75
2023/09/19 07:06:11;;;;;;;6.35;1.75;;;18.00;69.40;;;;;;5013220;28;20108;-74
2023/09/19 07:08:38;;;;;;;7.32;2.10;;;18.00;69.40;;;;;;5030891;28;20108;-78
2023/09/19 07:11:06;;;;;;;8.23;1.98;;;18.00;69.30;;;;;;5032227;28;20033;-77
2023/09/19 07:13:32;;;;;;;13.57;2.65;;;18.00;69.30;;;;;;5034089;28;20042;-76
2023/09/19 07:16:01;;;;;;;10.95;2.45;;;18.00;69.30;;;;;;5045396;28;20029;-74
2023/09/19 07:18:27;;;;;;;8.27;2.38;;;18.10;69.20;;;;;;5029787;28;20371;-75
2023/09/19 07:21:01;;;;;;;10.48;1.85;;;18.10;69.20;;;;;;5029663;28;20038;-74
2023/09/19 07:23:27;;;;;;;8.02;2.35;;;18.10;69.10;;;;;;5028365;28;20052;-75
2023/09/19 07:25:58;;;;;;;10.82;2.38;;;18.20;69.20;;;;;;5031659;28;20111;-75
2023/09/19 07:28:24;;;;;;;8.75;2.28;;;18.20;69.20;;;;;;5047041;28;20025;-70
2023/09/19 07:30:50;;;;;;;9.45;2.38;;;18.30;69.20;;;;;;5048174;28;20087;-75
2023/09/19 07:33:15;;;;;;;8.52;2.00;;;18.40;69.10;;;;;;5029203;28;20025;-76
2023/09/19 07:35:46;;;;;;;9.65;2.47;;;18.50;69.10;;;;;;5028742;28;20018;-77
2023/09/19 07:38:11;;;;;;;8.50;2.30;;;18.50;68.90;;;;;;5030215;28;20017;-77
2023/09/19 07:40:37;;;;;;;12.20;2.42;;;18.60;68.80;;;;;;5044896;28;20091;-77
2023/09/19 07:43:04;;;;;;;7.65;1.92;;;18.70;68.70;;;;;;5026464;28;20042;-75
2023/09/19 07:45:31;;;;;;;8.45;2.30;;;18.70;68.50;;;;;;5032141;28;20041;-77
2023/09/19 07:47:57;;;;;;;9.15;2.40;;;18.80;68.40;;;;;;5012953;28;20038;-77
2023/09/19 07:50:23;;;;;;;10.85;2.20;;;18.80;68.20;;;;;;5022740;28;20030;-78
2023/09/19 07:52:53;;;;;;;9.65;2.60;;;18.90;68.10;;;;;;5027207;28;20124;-77
2023/09/19 07:55:22;;;;;;;11.57;3.28;;;19.00;68.10;;;;;;5031761;28;20032;-77
2023/09/19 07:57:48;;;;;;;11.13;2.17;;;19.00;68.00;;;;;;5041909;28;20451;-77
2023/09/19 08:00:15;;;;;;;9.75;2.15;;;19.10;67.80;;;;;;5029486;28;20456;-77
2023/09/19 08:02:41;;;;;;;11.35;2.45;;;19.20;67.70;;;;;;5028830;28;20094;-76
2023/09/19 08:05:12;;;;;;;8.40;2.15;;;19.30;67.50;;;;;;5032215;28;20116;-76
2023/09/19 08:07:39;;;;;;;11.70;2.65;;;19.40;67.10;;;;;;5030059;28;20029;-72
2023/09/19 08:10:13;;;;;;;13.00;2.65;;;19.50;66.90;;;;;;5027510;28;20385;-76
2023/09/19 08:12:46;;;;;;;14.13;3.00;;;19.60;66.60;;;;;;5021421;28;20069;-75
2023/09/19 08:15:21;;;;;;;10.90;2.67;;;19.60;66.40;;;;;;5031424;28;20026;-71
2023/09/19 08:17:47;;;;;;;9.02;2.20;;;19.70;66.20;;;;;;5042311;28;20120;-76
2023/09/19 08:20:17;;;;;;;8.13;2.20;;;19.90;66.00;;;;;;5029348;28;20036;-74
2023/09/19 08:22:45;;;;;;;10.57;2.63;;;19.90;65.70;;;;;;5026149;28;20029;-75
2023/09/19 08:25:12;;;;;;;9.32;2.65;;;20.00;66.30;;;;;;5028687;28;20108;-74
2023/09/19 08:27:37;;;;;;;7.40;2.45;;;20.10;65.50;;;;;;5027530;28;20033;-75
2023/09/19 08:30:04;;;;;;;7.93;2.30;;;20.10;65.30;;;;;;5029042;28;20416;-75
2023/09/19 08:32:29;;;;;;;10.75;2.90;;;20.20;65.20;;;;;;5030054;28;20021;-75
2023/09/19 08:34:55;;;;;;;10.15;2.45;;;20.30;65.00;;;;;;5027347;28;20041;-76
2023/09/19 08:37:21;;;;;;;8.18;2.13;;;20.30;64.90;;;;;;5029067;28;20086;-73
2023/09/19 08:39:47;;;;;;;10.25;2.55;;;20.30;64.80;;;;;;5026024;28;20112;-74
2023/09/19 08:42:13;;;;;;;11.98;2.35;;;20.30;64.80;;;;;;5031248;28;20029;-73
2023/09/19 08:44:40;;;;;;;7.93;2.40;;;20.40;64.80;;;;;;5027693;28;20028;-74
2023/09/19 08:47:20;;;;;;;10.25;2.55;;;20.40;64.70;;;;;;5044035;28;20032;-74
2023/09/19 08:50:13;;;;;;;12.73;2.92;;;20.50;64.50;;;;;;5033272;28;20033;-74
2023/09/19 08:52:46;;;;;;;9.35;2.20;;;20.60;64.40;;;;;;5030296;28;20466;-73
2023/09/19 08:55:20;;;;;;;9.90;2.42;;;20.80;64.10;;;;;;5037706;28;20041;-73
2023/09/19 08:57:48;;;;;;;12.32;2.60;;;20.80;63.90;;;;;;5047462;28;20430;-74
2023/09/19 09:00:17;;;;;;;10.35;2.53;;;20.80;63.80;;;;;;5042165;28;20034;-74
2023/09/19 09:02:43;;;;;;;8.50;2.40;;;20.80;63.80;;;;;;5040273;28;20049;-71
2023/09/19 09:05:14;;;;;;;7.43;2.20;;;20.80;63.80;;;;;;5038655;28;20033;-74
2023/09/19 09:07:43;;;;;;;9.52;2.75;;;20.80;63.80;;;;;;5036047;28;20163;-74
2023/09/19 09:10:10;;;;;;;9.95;2.58;;;20.80;63.80;;;;;;5034190;28;20028;-75
2023/09/19 09:12:37;;;;;;;10.70;2.25;;;20.80;63.80;;;;;;5036219;28;20584;-75
2023/09/19 09:15:03;;;;;;;9.05;2.67;;;20.90;63.50;;;;;;5037046;28;20443;-75
2023/09/19 09:17:30;;;;;;;12.35;2.40;;;21.00;63.20;;;;;;5039664;28;20036;-75
2023/09/19 09:19:56;;;;;;;7.68;2.50;;;21.00;63.10;;;;;;5039740;28;20037;-75
2023/09/19 09:22:23;;;;;;;11.00;3.35;;;21.10;62.90;;;;;;5040478;28;20095;-75
2023/09/19 09:25:01;;;;;;;10.27;2.45;;;21.20;62.60;;;;;;5040151;28;20033;-75
2023/09/19 09:27:27;;;;;;;9.07;2.20;;;21.30;62.40;;;;;;5039600;28;20044;-75
2023/09/19 09:29:54;;;;;;;12.82;2.80;;;21.30;62.30;;;;;;5040878;28;20367;-75
2023/09/19 09:32:26;;;;;;;8.02;1.90;;;21.50;61.90;;;;;;5053198;28;20033;-75
2023/09/19 09:34:54;;;;;;;10.93;2.60;;;21.60;61.50;;;;;;5041400;28;20031;-75
2023/09/19 09:37:22;;;;;;;7.63;2.10;;;21.60;61.50;;;;;;5051163;28;20051;-75
2023/09/19 09:42:41;;;;;;;12.82;3.03;;;21.60;60.80;;;;;;5046896;28;20478;-74
2023/09/19 09:48:03;;;;;;;8.18;2.47;;;21.60;60.60;;;;;;5058791;28;20052;-76
2023/09/19 09:50:44;;;;;;;8.07;2.42;;;21.50;60.90;;;;;;5034383;28;20088;-74
2023/09/19 09:53:27;;;;;;;8.88;2.05;;;21.60;60.90;;;;;;5038461;28;20084;-76
2023/09/19 09:56:05;;;;;;;7.68;1.98;;;21.70;60.50;;;;;;5037590;28;20103;-76
2023/09/19 09:58:35;;;;;;;8.82;2.03;;;21.90;60.20;;;;;;5037606;28;20064;-75
2023/09/19 10:01:20;;;;;;;9.20;2.22;;;22.10;60.00;;;;;;5031861;28;20034;-74
2023/09/19 10:03:51;;;;;;;6.93;2.22;;;22.30;59.60;;;;;;5035445;28;20045;-75
2023/09/19 10:09:28;;;;;;;9.25;2.60;;;22.50;59.20;;;;;;5035234;28;20037;-74
2023/09/19 10:12:05;;;;;;;8.07;2.30;;;22.60;58.70;;;;;;5031643;28;20378;-74
2023/09/19 10:14:34;;;;;;;;;;;22.60;58.60;;;;;;5032936;28;20114;-74
2023/09/19 10:17:05;;;;;;;8.65;2.13;;;22.60;59.00;;;;;;5035233;28;19909;-74
2023/09/19 10:19:46;;;;;;;12.27;2.40;;;22.60;58.50;;;;;;5050410;28;20537;-74
2023/09/19 10:22:21;;;;;;;10.80;2.40;;;22.70;58.20;;;;;;5033449;28;20038;-76
2023/09/19 10:24:53;;;;;;;10.27;2.45;;;22.80;58.10;;;;;;5042921;28;20424;-76
2023/09/19 10:27:21;;;;;;;10.27;2.65;;;22.80;58.50;;;;;;5043332;28;20026;-75
2023/09/19 10:29:55;;;;;;;8.27;2.08;;;22.90;57.90;;;;;;5033576;28;20473;-76
2023/09/19 10:32:23;;;;;;;11.25;2.88;;;23.00;57.70;;;;;;5044794;28;20041;-76
2023/09/19 10:34:49;;;;;;;9.30;2.25;;;22.90;57.80;;;;;;5031826;28;20083;-76
2023/09/19 10:37:17;;;;;;;7.68;2.35;;;22.90;57.90;;;;;;5027339;28;20028;-75
2023/09/19 10:39:46;;;;;;;8.02;2.25;;;22.90;57.80;;;;;;5040764;28;20021;-75
2023/09/19 10:42:18;;;;;;;10.75;2.78;;;22.80;57.70;;;;;;5030907;28;20017;-75
2023/09/19 10:44:47;;;;;;;8.00;2.97;;;22.60;57.80;;;;;;5034239;28;20496;-75
2023/09/19 10:47:14;;;;;;;9.25;2.15;;;22.60;58.10;;;;;;5056697;28;20048;-76
2023/09/19 10:49:46;;;;;;;8.60;2.33;;;22.60;57.90;;;;;;5041396;28;20051;-76
2023/09/19 10:52:19;;;;;;;7.65;2.42;;;22.60;57.90;;;;;;5028755;28;20389;-75
2023/09/19 10:54:51;;;;;;;8.80;2.42;;;22.50;57.80;;;;;;5030139;28;20025;-76
2023/09/19 10:57:23;;;;;;;11.65;2.42;;;22.50;57.90;;;;;;5031628;28;20044;-75
2023/09/19 11:03:18;;;;;;;10.65;2.83;;;22.10;58.40;;;;;;5029790;28;20042;-75
2023/09/19 11:06:11;;;;;;;8.70;2.53;;;21.90;58.70;;;;;;5030355;28;20033;-75
2023/09/19 11:08:56;;;;;;;6.80;2.00;;;21.80;59.10;;;;;;5032958;28;20112;-75
2023/09/19 11:11:41;;;;;;;7.75;2.10;;;21.60;59.20;;;;;;5030717;28;20037;-75
2023/09/19 11:14:16;;;;;;;9.23;2.22;;;21.50;59.60;;;;;;5013434;28;20029;-75
2023/09/19 11:17:11;;;;;;;9.25;2.00;;;21.40;59.80;;;;;;5031564;28;20065;-76
2023/09/19 11:25:41;;;;;;;7.28;2.13;;;21.30;59.90;;;;;;5027830;28;20459;-75
2023/09/19 11:28:17;;;;;;;8.32;2.00;;;21.30;59.90;;;;;;5045617;28;20029;-75
2023/09/19 11:30:53;;;;;;;6.55;1.73;;;21.40;60.00;;;;;;5030017;28;20029;-75
2023/09/19 11:33:31;;;;;;;8.88;1.98;;;21.50;59.80;;;;;;5042534;28;20053;-75
2023/09/19 11:36:15;;;;;;;9.32;2.42;;;21.50;59.60;;;;;;5028215;28;20036;-75
2023/09/19 11:38:52;;;;;;;6.03;1.70;;;21.50;59.70;;;;;;5030118;28;20030;-75
2023/09/19 11:41:28;;;;;;;8.57;2.08;;;21.50;59.80;;;;;;5029349;28;20342;-75
2023/09/19 11:44:06;;;;;;;6.65;2.10;;;21.40;59.70;;;;;;5027370;28;20416;-75
2023/09/19 11:46:58;;;;;;;8.30;2.08;;;21.40;59.90;;;;;;5043823;28;20458;-75
2023/09/19 11:49:31;;;;;;;7.75;2.15;;;21.40;59.70;;;;;;5028127;28;20084;-74
2023/09/19 11:52:00;;;;;;;9.77;2.60;;;21.50;59.60;;;;;;5027208;28;20103;-75
2023/09/19 11:54:31;;;;;;;8.60;2.13;;;21.50;59.40;;;;;;5029849;28;20140;-75
2023/09/19 11:56:58;;;;;;;9.98;2.33;;;21.50;59.30;;;;;;5031077;28;20029;-75
2023/09/19 11:59:29;;;;;;;7.75;2.05;;;21.60;59.20;;;;;;5043576;28;20416;-74
2023/09/19 12:01:57;;;;;;;6.72;1.85;;;21.60;59.00;;;;;;5028433;28;20025;-75
2023/09/19 12:04:45;;;;;;;4.72;1.60;;;21.70;59.00;;;;;;5027476;28;20103;-75
2023/09/19 12:07:15;;;;;;;8.45;2.05;;;21.80;59.00;;;;;;5028794;28;20419;-75
2023/09/19 12:09:44;;;;;;;11.05;2.20;;;21.80;59.00;;;;;;5030084;28;20029;-75
2023/09/19 12:12:19;;;;;;;4.88;1.67;;;21.90;59.00;;;;;;5027415;28;20029;-75
2023/09/19 12:14:50;;;;;;;11.60;2.35;;;21.90;58.40;;;;;;5028658;28;20039;-75
2023/09/19 12:17:18;;;;;;;5.72;1.90;;;21.90;58.40;;;;;;5028984;28;20029;-75
2023/09/19 12:19:53;;;;;;;4.68;1.40;;;21.90;58.40;;;;;;5027269;28;20576;-74
2023/09/19 12:22:20;;;;;;;8.05;1.73;;;21.90;58.30;;;;;;5027882;28;20025;-75
2023/09/19 12:24:46;;;;;;;7.35;1.85;;;21.90;58.40;;;;;;5030068;28;20048;-75
2023/09/19 12:27:13;;;;;;;7.45;2.28;;;21.90;58.40;;;;;;5047084;28;20472;-72
2023/09/19 12:29:44;;;;;;;7.00;2.13;;;21.90;58.20;;;;;;5029123;28;20076;-71
2023/09/19 12:32:10;;;;;;;7.72;1.70;;;22.00;58.00;;;;;;5031474;28;20342;-71
2023/09/19 12:34:42;;;;;;;6.72;1.90;;;22.00;57.90;;;;;;5027334;28;21080;-71
2023/09/19 12:37:22;;;;;;;6.18;1.23;;;22.10;57.90;;;;;;5030491;28;20056;-71
2023/09/19 12:39:51;;;;;;;6.35;1.70;;;22.10;57.70;;;;;;5038494;28;20033;-72
2023/09/19 12:42:32;;;;;;;4.25;1.30;;;22.00;57.80;;;;;;5040177;28;20103;-72
2023/09/19 12:45:00;;;;;;;7.40;1.80;;;22.00;57.80;;;;;;5031119;28;20041;-72
2023/09/19 12:47:30;;;;;;;6.55;1.52;;;21.80;57.90;;;;;;5037574;28;20047;-72
2023/09/19 12:50:18;;;;;;;6.20;1.65;;;21.70;58.00;;;;;;5047716;28;20049;-71
2023/09/19 12:52:50;;;;;;;7.00;1.70;;;21.60;58.30;;;;;;5037505;28;20103;-72
2023/09/19 12:55:43;;;;;;;5.00;1.33;;;21.60;58.50;;;;;;5048487;28;20431;-74
2023/09/19 12:58:12;;;;;;;6.68;1.88;;;21.50;58.60;;;;;;5034458;28;20111;-73
2023/09/19 13:00:41;;;;;;;4.78;1.30;;;21.40;58.70;;;;;;5052372;28;20037;-73
2023/09/19 13:03:15;;;;;;;5.90;1.42;;;21.40;58.80;;;;;;5039827;28;20356;-74
2023/09/19 13:06:03;;;;;;;5.95;1.27;;;21.30;58.70;;;;;;5030208;28;20033;-73
2023/09/19 13:08:30;;;;;;;9.85;1.75;;;21.30;58.90;;;;;;5039120;28;20029;-74
2023/09/19 13:11:17;;;;;;;4.68;1.27;;;21.20;58.90;;;;;;5042140;28;20121;-76
2023/09/19 13:13:54;;;;;;;4.05;1.30;;;21.20;59.10;;;;;;5036208;28;20369;-73
2023/09/19 13:16:22;;;;;;;5.90;1.45;;;21.20;59.20;;;;;;5042046;28;20029;-73
2023/09/19 13:18:56;;;;;;;4.75;1.10;;;21.20;59.30;;;;;;5053302;28;20137;-77